Latest Coastal Weather Observations for Geraldton Airport

IDW60701

Issued at 6:13 pm WST Friday 20 April 2018 (issued every 10 minutes, with the page automatically refreshed every 10 minutes)

About coastal observations | Map of coastal stations | Coastal observations for WA | Marine services | Other Formats
Station Details ID: 008315 Name: GERALDTON AIRPORT Lat: -28.80 Lon: 114.70 Height: 29.7 m
Data from the previous 72 hours. | See also: Recent months at Geraldton Airport
Date/Time
WST
Temp
°C
Wind Pressure Rain since
9am
mm
Weather Cloud Vis
km
Sea
Height
m
Swell
Dir  Spd
kts
Gust
kts
hPa Trend Height
m
Period
s
Dir
20/06:00pm 20.7 S 6 8 1014.2 - 0.0 - Clear 10 - - - -
20/05:30pm 22.4 SSW 8 9 1014.0 - 0.0 - - 10 - - - -
20/05:00pm 23.3 SSW 9 11 1013.9 - 0.0 - - 10 - - - -
20/04:30pm 24.3 SSW 9 11 1014.0 - 0.0 - - 10 - - - -
20/04:00pm 24.5 SSW 9 13 1013.9 - 0.0 - - 10 - - - -
20/03:30pm 24.5 SW 9 11 1013.9 - 0.0 - - 10 - - - -
20/03:00pm 24.6 SW 10 13 1014.0 - 0.0 - - 10 - - - -
20/02:30pm 24.5 SW 11 14 1014.0 - 0.0 - - 10 - - - -
20/02:00pm 24.5 SW 10 14 1014.2 - 0.0 - - 10 - - - -
20/01:30pm 25.0 SW 11 15 1014.4 - 0.0 - - 10 - - - -
20/01:00pm 26.0 SE 5 7 1014.8 - 0.0 - - 10 - - - -
20/12:30pm 25.7 NNE 4 7 1015.1 - 0.0 - - 10 - - - -
20/12:00pm 25.2 ESE 6 11 1015.5 - 0.0 - - 10 - - - -
20/11:30am 23.9 E 6 9 1015.7 - 0.0 - Mostly clear 10 - - - -
20/11:00am 23.3 ESE 4 9 1015.7 - 0.0 - Mostly clear 10 - - - -
20/10:30am 22.5 ESE 5 9 1016.0 - 0.0 - Mostly clear 10 - - - -
20/10:00am 21.5 NE 6 9 1016.2 - 0.0 - Mostly clear 10 - - - -
20/09:30am 21.0 ENE 10 13 1016.3 - 0.0 - Mostly clear 10 - - - -
20/09:00am 20.0 NE 8 13 1016.4 - 0.0 - Mostly clear 10 - - - -
20/08:30am 17.3 NNE 9 11 1016.3 - 0.0 - Mostly clear 10 - - - -
20/08:00am 15.5 NNE 10 12 1016.0 - 0.0 - Mostly clear 10 - - - -
20/07:30am 13.1 NNE 10 11 1015.9 - 0.0 - Mostly clear 10 - - - -
20/07:00am 12.0 NNE 10 13 1015.7 - 0.0 - - 10 - - - -
20/06:30am 11.9 NNE 9 11 1015.5 - 0.0 - - 10 - - - -
20/06:00am 12.0 NE 9 11 1015.4 - 0.0 - - 10 - - - -
20/05:30am 12.0 NNE 10 11 1015.4 - 0.0 - - 10 - - - -
20/05:00am 12.5 NNE 9 10 1015.2 - 0.0 - Partly cloudy 10 - - - -
20/04:30am 12.7 NNE 10 11 1015.0 - 0.0 - Partly cloudy 10 - - - -
20/04:00am 11.9 NNE 11 12 1014.9 - 0.0 - - 10 - - - -
20/03:30am 12.0 NNE 10 12 1014.8 - 0.0 - - 10 - - - -
20/03:00am 12.6 NNE 10 12 1014.9 - 0.0 - Mostly clear 10 - - - -
20/02:30am 12.1 ENE 7 10 1014.8 - 0.0 - Partly cloudy 10 - - - -
20/02:00am 12.5 NNE 7 9 1014.7 - 0.0 - - 10 - - - -
20/01:30am 12.5 NNE 9 10 1014.7 - 0.0 - - 10 - - - -
20/01:00am 12.8 NNE 8 9 1014.9 - 0.0 - - 10 - - - -
20/12:30am 13.2 NNE 7 8 1014.8 - 0.0 - - 10 - - - -
20/12:00am 13.5 NNE 7 8 1015.0 - 0.0 - - 10 - - - -
 
Date/Time
WST
Temp
°C
Wind Pressure Rain since
9am
mm
Weather Cloud Vis
km
Sea
Height
m
Swell
Dir  Spd
kts
Gust
kts
hPa Trend Height
m
Period
s
Dir
19/11:30pm 13.5 NNE 7 7 1015.1 - 0.0 - Partly cloudy 10 - - - -
19/11:00pm 13.7 NNE 7 8 1015.3 - 0.0 - - 10 - - - -
19/10:30pm 13.6 NNE 4 5 1015.4 - 0.0 - Partly cloudy 10 - - - -
19/10:00pm 13.9 NNE 5 5 1015.3 - 0.0 - Partly cloudy 10 - - - -
19/09:30pm 14.7 E 3 4 1015.1 - 0.0 - Partly cloudy 10 - - - -
19/09:00pm 14.7 ESE 2 3 1015.0 - 0.0 - - 10 - - - -
19/08:30pm 15.5 CALM 0 0 1015.0 - 0.0 - - 10 - - - -
19/08:00pm 16.6 SSW 4 4 1014.9 - 0.0 - - 10 - - - -
19/07:30pm 17.4 SSW 5 6 1014.8 - 0.0 - - 10 - - - -
19/07:00pm 17.8 SSW 5 6 1014.7 - 0.0 - - 10 - - - -
19/06:30pm 18.5 SSW 5 6 1014.5 - 0.0 - - 10 - - - -
19/06:00pm 19.7 SW 9 12 1014.2 - 0.0 - - 10 - - - -
19/05:30pm 20.6 SW 11 14 1013.9 - 0.0 - - 10 - - - -
19/05:00pm 21.3 SW 12 15 1014.0 - 0.0 - - 10 - - - -
19/04:30pm 21.5 SSW 11 14 1013.7 - 0.0 - - 10 - - - -
19/04:00pm 22.3 SSW 11 14 1013.5 - 0.0 - Mostly clear 10 - - - -
19/03:30pm 22.2 SW 11 16 1013.4 - 0.0 - - 10 - - - -
19/03:00pm 23.2 SW 9 14 1013.4 - 0.0 - - 10 - - - -
19/02:30pm 22.8 SW 10 16 1013.5 - 0.0 - - 10 - - - -
19/02:00pm 22.9 SW 12 17 1013.6 - 0.0 - - 10 - - - -
19/01:30pm 22.6 SW 12 16 1013.7 - 0.0 - - 10 - - - -
19/01:00pm 23.9 SSW 11 14 1014.0 - 0.0 - Mostly clear 10 - - - -
19/12:30pm 22.7 SW 10 17 1014.3 - 0.0 - Mostly clear 10 - - - -
19/12:00pm 23.1 S 7 15 1014.7 - 0.0 - Mostly clear 10 - - - -
19/11:30am 22.4 SSE 6 13 1015.2 - 0.0 - Mostly clear 10 - - - -
19/11:00am 22.3 SSE 6 10 1015.5 - 0.0 - Mostly clear 10 - - - -
19/10:30am 22.2 SSE 7 11 1016.0 - 0.0 - Mostly clear 10 - - - -
19/10:00am 21.3 ESE 7 10 1016.3 - 0.0 - Mostly clear 10 - - - -
19/09:30am 20.7 E 7 11 1016.2 - 0.0 - Mostly clear 10 - - - -
19/09:00am 19.7 ENE 7 10 1016.4 - 0.0 - Mostly clear 10 - - - -
19/08:30am 17.6 NNE 5 6 1016.4 - 0.0 - Mostly clear 10 - - - -
19/08:00am 15.8 NNE 9 11 1015.8 - 0.0 - Mostly clear 10 - - - -
19/07:30am 14.3 NE 9 11 1015.7 - 0.0 - Mostly clear 10 - - - -
19/07:00am 12.5 NNE 9 11 1015.6 - 0.0 - - 10 - - - -
19/06:30am 12.2 NNE 9 11 1015.5 - 0.0 - Partly cloudy 10 - - - -
19/06:00am 11.6 NE 8 8 1015.4 - 0.0 - - 10 - - - -
19/05:30am 12.1 NNE 7 8 1015.5 - 0.0 - - 10 - - - -
19/05:00am 12.6 NNE 7 8 1015.3 - 0.0 - - 10 - - - -
19/04:30am 11.6 ENE 7 7 1015.1 - 0.0 - - 10 - - - -
19/04:00am 12.7 NNE 4 5 1015.5 - 0.0 - Partly cloudy 10 - - - -
19/03:30am 13.3 NE 5 6 1015.4 - 0.0 - - 10 - - - -
19/03:00am 13.2 NE 6 7 1015.5 - 0.0 - Partly cloudy 10 - - - -
19/02:30am 13.1 NNE 6 7 1015.7 - 0.0 - Partly cloudy 10 - - - -
19/02:00am 13.7 ESE 3 4 1015.9 - 0.0 - Partly cloudy 10 - - - -
19/01:30am 13.8 SE 4 4 1016.1 - 0.0 - - 10 - - - -
19/01:00am 14.2 SE 5 6 1016.1 - 0.0 - Partly cloudy 10 - - - -
19/12:30am 15.4 SE 7 8 1016.3 - 0.0 - Partly cloudy 10 - - - -
19/12:00am 15.0 ESE 6 6 1016.6 - 0.0 - Mostly clear 10 - - - -
 
Date/Time
WST
Temp
°C
Wind Pressure Rain since
9am
mm
Weather Cloud Vis
km
Sea
Height
m
Swell
Dir  Spd
kts
Gust
kts
hPa Trend Height
m
Period
s
Dir
18/11:30pm 15.5 SE 5 6 1017.0 - 0.0 - Partly cloudy 10 - - - -
18/11:00pm 15.8 ESE 7 8 1017.2 - 0.0 - Partly cloudy 10 - - - -
18/10:30pm 18.6 S 9 11 1017.4 - 0.0 - - 10 - - - -
18/10:00pm 18.8 S 9 11 1017.5 - 0.0 - - 10 - - - -
18/09:30pm 18.7 S 9 11 1017.5 - 0.0 - - 10 - - - -
18/09:00pm 18.4 S 8 9 1017.7 - 0.0 - - 10 - - - -
18/08:30pm 18.9 S 7 9 1017.8 - 0.0 - Partly cloudy 10 - - - -
18/08:00pm 19.2 S 8 11 1017.7 - 0.0 - - 10 - - - -
18/07:30pm 19.7 S 9 13 1017.5 - 0.0 - - 10 - - - -
18/07:00pm 20.0 S 12 16 1017.5 - 0.0 - - 10 - - - -
18/06:30pm 20.4 S 12 15 1017.2 - 0.0 - Partly cloudy 10 - - - -
18/06:00pm 20.8 S 13 16 1017.0 - 0.0 - Mostly clear 10 - - - -
18/05:30pm 21.6 S 15 19 1016.7 - 0.0 - - 10 - - - -
18/05:00pm 22.7 S 15 20 1016.4 - 0.0 - - 10 - - - -
18/04:30pm 22.9 S 16 20 1016.0 - 0.0 - Mostly clear 10 - - - -
18/04:00pm 23.8 S 15 19 1015.8 - 0.0 - Mostly clear 10 - - - -
18/03:30pm 23.6 SSW 16 20 1015.8 - 0.0 - Mostly clear 10 - - - -
18/03:00pm 24.3 S 15 20 1015.7 - 0.0 - Mostly clear 10 - - - -
18/02:30pm 24.5 S 14 17 1015.9 - 0.0 - Mostly clear 10 - - - -
18/02:00pm 24.7 SSW 15 19 1016.1 - 0.0 - Mostly clear 10 - - - -
18/01:30pm 24.6 S 15 20 1016.4 - 0.0 - Mostly clear 10 - - - -
18/01:00pm 24.0 S 13 19 1016.9 - 0.0 - Mostly clear 10 - - - -
18/12:30pm 24.3 S 13 19 1017.3 - 0.0 - Mostly clear 10 - - - -
18/12:00pm 24.7 SSW 15 19 1017.4 - 0.0 - Mostly clear 10 - - - -
18/11:30am 24.2 S 13 17 1017.6 - 0.0 - Mostly clear 10 - - - -
18/11:00am 24.4 S 12 16 1017.9 - 0.0 - Mostly clear 10 - - - -
18/10:30am 24.3 SSE 11 16 1018.2 - 0.0 - Mostly clear 10 - - - -
18/10:00am 23.2 SSE 12 15 1018.5 - 0.0 - Mostly clear 10 - - - -
18/09:30am 22.9 SE 9 13 1018.7 - 0.0 - - 10 - - - -
18/09:00am 21.4 ESE 7 10 1018.8 - 0.0 - - 10 - - - -
18/08:30am 19.3 NE 6 8 1019.0 - 0.0 - - 10 - - - -
18/08:00am 17.1 NNE 8 9 1018.9 - 0.0 - - 10 - - - -
18/07:30am 15.3 NE 8 9 1018.7 - 0.0 - - 10 - - - -
18/07:00am 13.4 NE 7 8 1018.6 - 0.0 - - 10 - - - -
18/06:30am 12.5 NE 7 7 1018.6 - 0.0 - - 10 - - - -
18/06:00am 12.9 NE 5 6 1018.5 - 0.0 - - 10 - - - -
18/05:30am 12.7 NNE 6 7 1018.2 - 0.0 - - 10 - - - -
18/05:00am 12.6 NE 3 4 1018.1 - 0.0 - - 10 - - - -
18/04:30am 13.4 CALM 0 3 1017.9 - 0.0 - - 10 - - - -
18/04:00am 13.3 E 3 4 1017.8 - 0.0 - - 10 - - - -
18/03:30am 12.9 E 3 4 1017.9 - 0.0 - - 10 - - - -
18/03:00am 12.9 ESE 4 4 1018.1 - 0.0 - - 10 - - - -
18/02:30am 13.1 SE 5 5 1018.3 - 0.0 - - 10 - - - -
18/02:00am 13.8 SE 5 5 1018.5 - 0.0 - - 10 - - - -
18/01:30am 13.8 SE 4 5 1018.7 - 0.0 - - 10 - - - -
18/01:00am 14.2 SE 5 5 1018.7 - 0.0 - - 10 - - - -
18/12:30am 14.8 SSE 6 6 1018.8 - 0.0 - - 10 - - - -
18/12:00am 15.2 SE 5 6 1018.9 - 0.0 - - 10 - - - -
 
Date/Time
WST
Temp
°C
Wind Pressure Rain since
9am
mm
Weather Cloud Vis
km
Sea
Height
m
Swell
Dir  Spd
kts
Gust
kts
hPa Trend Height
m
Period
s
Dir
17/11:30pm 15.0 SE 4 5 1019.2 - 0.0 - - 10 - - - -
17/11:00pm 15.8 SE 4 5 1019.3 - 0.0 - - 10 - - - -
17/10:30pm 16.1 ESE 3 4 1019.4 - 0.0 - - 10 - - - -
17/10:00pm 16.7 SE 4 5 1019.4 - 0.0 - - 10 - - - -
17/09:30pm 16.9 SE 4 5 1019.5 - 0.0 - - 10 - - - -
17/09:00pm 18.1 SSE 6 7 1019.5 - 0.0 - - 10 - - - -
17/08:30pm 18.5 SSE 6 6 1019.5 - 0.0 - - 10 - - - -
17/08:00pm 19.4 SSE 7 9 1019.5 - 0.0 - - 10 - - - -
17/07:30pm 20.2 S 9 11 1019.2 - 0.0 - - 10 - - - -
17/07:00pm 20.1 S 7 8 1018.9 - 0.0 - - 10 - - - -
17/06:30pm 20.8 S 8 11 1018.5 - 0.0 - - 10 - - - -

Other Formats:

Comma delimited format used in spreadsheet applications
http://www.bom.gov.au/fwo/IDW60701/IDW60701.94403.axf

JavaScript Object Notation format (JSON) in row-major order
http://www.bom.gov.au/fwo/IDW60701/IDW60701.94403.json